Currently 64°F in Hemet, California, USA
64°F
64°F / 52°F
calm
0.00"
Wednesday, October 28, 2020 9:28 AM PDT

Hemet, California Weather Summary
Last 36 Hours

Temperature Winds Hourly Humidity Dewpoint
Time Report Norm Report Norm Max Gusts Precip. Rpt. Norm Rpt. Norm Pressure
1Wed 09:28 AM  63.7°F  66°F  calm  calm  none  0.00"  27%  42%  28°F  42°F  30.13"
2Wed 09:26 AM  63.7°F  66°F  calm  calm  none  ----  27%  42%  28°F  42°F  30.13"
Wed 09:00 AM  61.0°F  65°F  calm  calm  none  0.00"  26%  43%  24°F  41°F  30.13"
Wed 08:00 AM  54.1°F  59°F  calm  calm  none  0.00"  22%  45%  14°F  37°F  30.11"
Wed 07:00 AM  54.7°F  57°F  calm  calm  none  0.00"  19%  46%  11°F  36°F  30.11"
Wed 06:00 AM  52.9°F  58°F  calm  calm  none  0.00"  20%  45%  11°F  36°F  30.11"
3Wed 05:24 AM  52.0°F  58°F  calm  calm  none  ----  23%  46%  14°F  36°F  30.11"
Wed 05:00 AM  53.4°F  58°F  calm  calm  none  0.00"  21%  46%  13°F  37°F  30.11"
Wed 04:00 AM  53.2°F  58°F  calm  calm  none  0.00"  19%  46%  10°F  37°F  30.10"
Wed 03:00 AM  53.4°F  59°F  calm  calm  none  0.00"  20%  46%  11°F  37°F  30.11"
Wed 02:00 AM  53.2°F  59°F  calm  calm  2 mph  0.00"  19%  46%  10°F  37°F  30.12"
Wed 01:00 AM  53.2°F  59°F  calm  calm  none  0.00"  19%  46%  10°F  38°F  30.12"
Wed 12:01 AM  53.6°F  60°F  calm  calm  none  0.00"  19%  46%  10°F  39°F  30.13"
Tue 11:00 PM  56.1°F  61°F  calm  calm  none  0.00"  15%  46%  7°F  39°F  30.14"
Tue 10:00 PM  56.7°F  62°F  calm  1 mph  2 mph  0.00"  16%  45%  9°F  39°F  30.12"
Tue 09:00 PM  57.9°F  63°F  calm  1 mph  5 mph  0.00"  16%  44%  10°F  40°F  30.11"
Tue 08:00 PM  60.4°F  65°F  2 mph SE  1 mph  3 mph  0.00"  15%  43%  10°F  40°F  30.09"
Tue 07:00 PM  62.4°F  67°F  calm  1 mph  none  0.00"  13%  40%  9°F  41°F  30.08"
Tue 06:00 PM  68.9°F  71°F  calm  1 mph  none  0.00"  10%  36%  8°F  42°F  30.06"
Tue 05:00 PM  73.9°F  76°F  calm  1 mph  9 mph  0.00"  8%  31%  6°F  42°F  30.04"
Tue 04:00 PM  75.9°F  78°F  2 mph W  2 mph  8 mph  0.00"  9%  28%  11°F  41°F  30.04"
Tue 03:00 PM  76.5°F  78°F  2 mph W  2 mph  7 mph  0.00"  8%  27%  8°F  41°F  30.04"
Tue 02:00 PM  73.6°F  78°F  1 mph S  2 mph  8 mph  0.00"  9%  28%  9°F  41°F  30.05"
Tue 01:00 PM  71.4°F  76°F  2 mph SW  1 mph  9 mph  0.00"  8%  30%  4°F  41°F  30.07"
Tue 12:00 PM  68.5°F  74°F  calm  1 mph  6 mph  0.00"  8%  33%  2°F  42°F  30.10"
Tue 11:00 AM  64.8°F  71°F  calm  1 mph  none  0.00"  10%  37%  4°F  42°F  30.11"
Tue 10:00 AM  59.9°F  68°F  calm  calm  5 mph  0.00"  14%  42%  8°F  43°F  30.12"
Tue 09:00 AM  58.6°F  65°F  3 mph W  calm  5 mph  0.00"  18%  43%  13°F  41°F  30.11"
Tue 08:00 AM  49.5°F  59°F  calm  calm  none  0.00"  13%  46%  -2°F  38°F  30.10"
Tue 07:00 AM  47.5°F  58°F  calm  calm  none  0.00"  13%  46%  -3°F  36°F  30.09"
Tue 06:00 AM  47.7°F  58°F  calm  calm  none  0.00"  14%  46%  -2°F  36°F  30.09"
Tue 05:00 AM  47.7°F  58°F  calm  calm  none  0.00"  12%  46%  -5°F  37°F  30.08"
Tue 04:00 AM  47.7°F  59°F  calm  calm  none  0.00"  12%  46%  -5°F  37°F  30.09"
Tue 03:00 AM  49.5°F  59°F  calm  calm  2 mph  0.00"  10%  46%  -8°F  38°F  30.09"
Tue 02:00 AM  48.0°F  60°F  calm  calm  none  0.00"  11%  46%  -7°F  38°F  30.09"
Tue 01:00 AM  48.6°F  60°F  calm  calm  none  0.00"  12%  47%  -4°F  39°F  30.09"
Tue 12:01 AM  48.0°F  61°F  calm  calm  none  0.00"  14%  47%  -1°F  39°F  30.10"
Mon 11:00 PM  48.7°F  61°F  calm  calm  1 mph  0.00"  15%  46%  1°F  40°F  30.08"
Mon 10:00 PM  51.4°F  62°F  calm  calm  3 mph  0.00"  10%  45%  -6°F  40°F  30.08"

  1. Current weather data. No green row appears if the current weather data is also the high or low for the current day.
  2. High temperature for the current day.
  3. Low temperature for the current day.

The Hemet weather pages are a service of WeatherCurrents. Hemet, California is located in the San Jacinto Valley, in western Riverside County, at the foot of the San Jacinto mountains.
Copyright ©2020  WeatherCurrents. All rights reserved. - Submit questions and comments - Privacy Policy

This page automatically refreshes every 10 minutes.